sensor_id;sensor_type;location;lat;lon;timestamp;temperature;humidity
4673;DHT22;61885;53.560;9.940;2023-04-25T00:01:03;7.50;99.90
4673;DHT22;61885;53.560;9.940;2023-04-25T00:03:35;7.50;99.90
4673;DHT22;61885;53.560;9.940;2023-04-25T00:06:06;7.40;99.90
4673;DHT22;61885;53.560;9.940;2023-04-25T00:08:36;7.40;99.90
4673;DHT22;61885;53.560;9.940;2023-04-25T00:11:05;7.40;99.90
4673;DHT22;61885;53.560;9.940;2023-04-25T00:13:37;7.40;99.90
4673;DHT22;61885;53.560;9.940;2023-04-25T00:16:08;7.30;99.90
4673;DHT22;61885;53.560;9.940;2023-04-25T00:18:37;7.30;99.90
4673;DHT22;61885;53.560;9.940;2023-04-25T00:21:07;7.30;99.90
4673;DHT22;61885;53.560;9.940;2023-04-25T00:23:37;7.20;99.90
4673;DHT22;61885;53.560;9.940;2023-04-25T00:26:06;7.20;99.90
4673;DHT22;61885;53.560;9.940;2023-04-25T00:28:39;7.20;99.90
4673;DHT22;61885;53.560;9.940;2023-04-25T00:31:09;7.20;99.90
4673;DHT22;61885;53.560;9.940;2023-04-25T00:33:41;7.20;99.90
4673;DHT22;61885;53.560;9.940;2023-04-25T00:36:10;7.10;99.90
4673;DHT22;61885;53.560;9.940;2023-04-25T00:38:40;7.10;99.90
4673;DHT22;61885;53.560;9.940;2023-04-25T00:41:09;7.10;99.90
4673;DHT22;61885;53.560;9.940;2023-04-25T00:43:42;7.20;99.90
4673;DHT22;61885;53.560;9.940;2023-04-25T00:46:11;7.10;99.90
4673;DHT22;61885;53.560;9.940;2023-04-25T00:48:41;7.10;99.90
4673;DHT22;61885;53.560;9.940;2023-04-25T00:51:13;7.20;99.90
4673;DHT22;61885;53.560;9.940;2023-04-25T00:53:45;7.20;99.90
4673;DHT22;61885;53.560;9.940;2023-04-25T00:56:17;7.20;99.90
4673;DHT22;61885;53.560;9.940;2023-04-25T00:58:53;7.20;99.90
4673;DHT22;61885;53.560;9.940;2023-04-25T01:01:25;7.20;99.90
4673;DHT22;61885;53.560;9.940;2023-04-25T01:03:56;7.20;99.90
4673;DHT22;61885;53.560;9.940;2023-04-25T01:06:29;7.10;99.90
4673;DHT22;61885;53.560;9.940;2023-04-25T01:08:59;7.10;99.90
4673;DHT22;61885;53.560;9.940;2023-04-25T01:11:29;7.10;99.90
4673;DHT22;61885;53.560;9.940;2023-04-25T01:14:01;7.00;99.90
4673;DHT22;61885;53.560;9.940;2023-04-25T01:16:32;7.00;99.90
4673;DHT22;61885;53.560;9.940;2023-04-25T01:19:01;7.10;99.90
4673;DHT22;61885;53.560;9.940;2023-04-25T01:21:36;7.00;99.90
4673;DHT22;61885;53.560;9.940;2023-04-25T01:24:10;7.00;99.90
4673;DHT22;61885;53.560;9.940;2023-04-25T01:26:41;7.00;99.90
4673;DHT22;61885;53.560;9.940;2023-04-25T01:29:16;7.00;99.90
4673;DHT22;61885;53.560;9.940;2023-04-25T01:31:47;6.90;99.90
4673;DHT22;61885;53.560;9.940;2023-04-25T01:34:16;6.90;99.90
4673;DHT22;61885;53.560;9.940;2023-04-25T01:36:50;6.90;99.90
4673;DHT22;61885;53.560;9.940;2023-04-25T01:39:20;6.90;99.90
4673;DHT22;61885;53.560;9.940;2023-04-25T01:41:50;6.90;99.90
4673;DHT22;61885;53.560;9.940;2023-04-25T01:44:20;6.80;99.90
4673;DHT22;61885;53.560;9.940;2023-04-25T01:46:49;6.80;99.90
4673;DHT22;61885;53.560;9.940;2023-04-25T01:49:19;6.80;99.90
4673;DHT22;61885;53.560;9.940;2023-04-25T01:51:51;6.80;99.90
4673;DHT22;61885;53.560;9.940;2023-04-25T01:54:23;6.80;99.90
4673;DHT22;61885;53.560;9.940;2023-04-25T01:56:53;6.80;99.90
4673;DHT22;61885;53.560;9.940;2023-04-25T01:59:27;6.70;99.90
4673;DHT22;61885;53.560;9.940;2023-04-25T02:01:56;6.70;99.90
4673;DHT22;61885;53.560;9.940;2023-04-25T02:04:26;6.70;99.90
4673;DHT22;61885;53.560;9.940;2023-04-25T02:06:59;6.70;99.90
4673;DHT22;61885;53.560;9.940;2023-04-25T02:09:28;6.60;99.90
4673;DHT22;61885;53.560;9.940;2023-04-25T02:11:58;6.60;99.90
4673;DHT22;61885;53.560;9.940;2023-04-25T02:14:29;6.60;99.90
4673;DHT22;61885;53.560;9.940;2023-04-25T02:16:59;6.60;99.90
4673;DHT22;61885;53.560;9.940;2023-04-25T02:19:28;6.60;99.90
4673;DHT22;61885;53.560;9.940;2023-04-25T02:22:00;6.60;99.90
4673;DHT22;61885;53.560;9.940;2023-04-25T02:24:30;6.60;99.90
4673;DHT22;61885;53.560;9.940;2023-04-25T02:27:00;6.50;99.90
4673;DHT22;61885;53.560;9.940;2023-04-25T02:29:36;6.60;99.90
4673;DHT22;61885;53.560;9.940;2023-04-25T02:32:14;6.50;99.90
4673;DHT22;61885;53.560;9.940;2023-04-25T02:34:43;6.50;99.90
4673;DHT22;61885;53.560;9.940;2023-04-25T02:37:15;6.40;99.90
4673;DHT22;61885;53.560;9.940;2023-04-25T02:39:45;6.50;99.90
4673;DHT22;61885;53.560;9.940;2023-04-25T02:42:14;6.50;99.90
4673;DHT22;61885;53.560;9.940;2023-04-25T02:44:44;6.40;99.90
4673;DHT22;61885;53.560;9.940;2023-04-25T02:47:17;6.50;99.90
4673;DHT22;61885;53.560;9.940;2023-04-25T02:49:46;6.50;99.90
4673;DHT22;61885;53.560;9.940;2023-04-25T02:52:19;6.50;99.90
4673;DHT22;61885;53.560;9.940;2023-04-25T02:54:50;6.50;99.90
4673;DHT22;61885;53.560;9.940;2023-04-25T02:57:21;6.40;99.90
4673;DHT22;61885;53.560;9.940;2023-04-25T02:59:50;6.40;99.90
4673;DHT22;61885;53.560;9.940;2023-04-25T03:02:20;6.40;99.90
4673;DHT22;61885;53.560;9.940;2023-04-25T03:04:49;6.40;99.90
4673;DHT22;61885;53.560;9.940;2023-04-25T03:07:21;6.30;99.90
4673;DHT22;61885;53.560;9.940;2023-04-25T03:09:51;6.30;99.90
4673;DHT22;61885;53.560;9.940;2023-04-25T03:12:22;6.30;99.90
4673;DHT22;61885;53.560;9.940;2023-04-25T03:14:51;6.20;99.90
4673;DHT22;61885;53.560;9.940;2023-04-25T03:17:24;6.20;99.90
4673;DHT22;61885;53.560;9.940;2023-04-25T03:19:54;6.10;99.90
4673;DHT22;61885;53.560;9.940;2023-04-25T03:22:29;6.10;99.90
4673;DHT22;61885;53.560;9.940;2023-04-25T03:24:58;6.10;99.90
4673;DHT22;61885;53.560;9.940;2023-04-25T03:27:27;6.00;99.90
4673;DHT22;61885;53.560;9.940;2023-04-25T03:29:59;6.00;98.10
4673;DHT22;61885;53.560;9.940;2023-04-25T03:32:29;6.00;99.70
4673;DHT22;61885;53.560;9.940;2023-04-25T03:34:59;5.90;98.90
4673;DHT22;61885;53.560;9.940;2023-04-25T03:37:32;5.90;98.90
4673;DHT22;61885;53.560;9.940;2023-04-25T03:40:04;5.80;99.50
4673;DHT22;61885;53.560;9.940;2023-04-25T03:42:35;5.90;92.30
4673;DHT22;61885;53.560;9.940;2023-04-25T03:45:06;5.90;93.30
4673;DHT22;61885;53.560;9.940;2023-04-25T03:47:37;5.90;92.20
4673;DHT22;61885;53.560;9.940;2023-04-25T03:50:10;5.90;87.50
4673;DHT22;61885;53.560;9.940;2023-04-25T03:52:43;5.90;85.80
4673;DHT22;61885;53.560;9.940;2023-04-25T03:55:13;5.90;79.90
4673;DHT22;61885;53.560;9.940;2023-04-25T03:57:43;6.00;65.30
4673;DHT22;61885;53.560;9.940;2023-04-25T04:00:14;6.00;47.50
4673;DHT22;61885;53.560;9.940;2023-04-25T04:02:44;5.90;39.10
4673;DHT22;61885;53.560;9.940;2023-04-25T04:05:14;5.80;30.70
4673;DHT22;61885;53.560;9.940;2023-04-25T04:07:46;5.90;23.40
4673;DHT22;61885;53.560;9.940;2023-04-25T04:10:15;5.80;21.40
4673;DHT22;61885;53.560;9.940;2023-04-25T04:12:45;5.80;14.90
4673;DHT22;61885;53.560;9.940;2023-04-25T04:15:15;5.80;13.20
4673;DHT22;61885;53.560;9.940;2023-04-25T04:17:44;5.80;10.90
4673;DHT22;61885;53.560;9.940;2023-04-25T04:20:14;5.70;8.50
4673;DHT22;61885;53.560;9.940;2023-04-25T04:22:48;5.70;7.80
4673;DHT22;61885;53.560;9.940;2023-04-25T04:25:19;5.70;6.00
4673;DHT22;61885;53.560;9.940;2023-04-25T04:27:49;5.70;4.80
4673;DHT22;61885;53.560;9.940;2023-04-25T04:30:24;5.70;3.60
4673;DHT22;61885;53.560;9.940;2023-04-25T04:32:56;5.70;3.60
4673;DHT22;61885;53.560;9.940;2023-04-25T04:35:25;5.70;5.10
4673;DHT22;61885;53.560;9.940;2023-04-25T04:37:57;5.70;6.70
4673;DHT22;61885;53.560;9.940;2023-04-25T04:40:27;5.70;3.40
4673;DHT22;61885;53.560;9.940;2023-04-25T04:42:57;5.70;3.90
4673;DHT22;61885;53.560;9.940;2023-04-25T04:45:28;5.80;3.90
4673;DHT22;61885;53.560;9.940;2023-04-25T04:47:58;5.90;5.50
4673;DHT22;61885;53.560;9.940;2023-04-25T04:50:27;5.90;5.50
4673;DHT22;61885;53.560;9.940;2023-04-25T04:53:04;5.90;8.20
4673;DHT22;61885;53.560;9.940;2023-04-25T04:55:37;6.10;8.10
4673;DHT22;61885;53.560;9.940;2023-04-25T04:58:09;6.10;9.50
4673;DHT22;61885;53.560;9.940;2023-04-25T05:00:38;6.00;10.30
4673;DHT22;61885;53.560;9.940;2023-04-25T05:03:09;6.00;11.80
4673;DHT22;61885;53.560;9.940;2023-04-25T05:05:39;6.00;10.00
4673;DHT22;61885;53.560;9.940;2023-04-25T05:08:11;6.00;10.80
4673;DHT22;61885;53.560;9.940;2023-04-25T05:10:41;5.90;10.50
4673;DHT22;61885;53.560;9.940;2023-04-25T05:13:11;6.00;6.20
4673;DHT22;61885;53.560;9.940;2023-04-25T05:15:43;6.00;5.70
4673;DHT22;61885;53.560;9.940;2023-04-25T05:18:15;5.90;5.10
4673;DHT22;61885;53.560;9.940;2023-04-25T05:20:45;6.00;4.40
4673;DHT22;61885;53.560;9.940;2023-04-25T05:23:17;5.90;5.70
4673;DHT22;61885;53.560;9.940;2023-04-25T05:25:46;5.90;8.00
4673;DHT22;61885;53.560;9.940;2023-04-25T05:28:16;6.00;5.90
4673;DHT22;61885;53.560;9.940;2023-04-25T05:30:47;6.10;5.80
4673;DHT22;61885;53.560;9.940;2023-04-25T05:33:16;6.00;4.10
4673;DHT22;61885;53.560;9.940;2023-04-25T05:35:46;6.00;3.50
4673;DHT22;61885;53.560;9.940;2023-04-25T05:38:19;6.00;4.40
4673;DHT22;61885;53.560;9.940;2023-04-25T05:40:48;6.00;6.40
4673;DHT22;61885;53.560;9.940;2023-04-25T05:43:18;5.90;7.40
4673;DHT22;61885;53.560;9.940;2023-04-25T05:45:48;6.00;9.70
4673;DHT22;61885;53.560;9.940;2023-04-25T05:48:18;6.00;9.00
4673;DHT22;61885;53.560;9.940;2023-04-25T05:50:48;6.00;9.60
4673;DHT22;61885;53.560;9.940;2023-04-25T05:53:21;6.00;12.40
4673;DHT22;61885;53.560;9.940;2023-04-25T05:55:53;6.10;12.40
4673;DHT22;61885;53.560;9.940;2023-04-25T05:58:22;6.10;8.80
4673;DHT22;61885;53.560;9.940;2023-04-25T06:00:54;6.00;13.50
4673;DHT22;61885;53.560;9.940;2023-04-25T06:03:27;6.20;12.30
4673;DHT22;61885;53.560;9.940;2023-04-25T06:05:58;6.20;12.30
4673;DHT22;61885;53.560;9.940;2023-04-25T06:08:33;6.30;10.90
4673;DHT22;61885;53.560;9.940;2023-04-25T06:11:09;6.30;6.60
4673;DHT22;61885;53.560;9.940;2023-04-25T06:13:39;6.40;6.00
4673;DHT22;61885;53.560;9.940;2023-04-25T06:16:09;6.40;3.00
4673;DHT22;61885;53.560;9.940;2023-04-25T06:18:41;6.50;4.70
4673;DHT22;61885;53.560;9.940;2023-04-25T06:21:11;6.50;6.50
4673;DHT22;61885;53.560;9.940;2023-04-25T06:23:43;6.40;8.90
4673;DHT22;61885;53.560;9.940;2023-04-25T06:26:14;6.40;9.20
4673;DHT22;61885;53.560;9.940;2023-04-25T06:28:44;6.40;10.80
4673;DHT22;61885;53.560;9.940;2023-04-25T06:31:16;6.40;13.40
4673;DHT22;61885;53.560;9.940;2023-04-25T06:33:45;6.20;15.80
4673;DHT22;61885;53.560;9.940;2023-04-25T06:36:15;6.10;25.00
4673;DHT22;61885;53.560;9.940;2023-04-25T06:38:59;6.00;17.20
4673;DHT22;61885;53.560;9.940;2023-04-25T06:41:29;6.00;16.60
4673;DHT22;61885;53.560;9.940;2023-04-25T06:43:59;6.10;16.90
4673;DHT22;61885;53.560;9.940;2023-04-25T06:46:30;6.20;20.40
4673;DHT22;61885;53.560;9.940;2023-04-25T06:49:03;6.40;21.00
4673;DHT22;61885;53.560;9.940;2023-04-25T06:51:33;6.50;14.00
4673;DHT22;61885;53.560;9.940;2023-04-25T06:54:05;6.60;12.80
4673;DHT22;61885;53.560;9.940;2023-04-25T06:56:35;6.70;12.10
4673;DHT22;61885;53.560;9.940;2023-04-25T06:59:07;6.70;8.60
4673;DHT22;61885;53.560;9.940;2023-04-25T07:01:37;6.90;9.30
4673;DHT22;61885;53.560;9.940;2023-04-25T07:04:06;7.00;6.60
4673;DHT22;61885;53.560;9.940;2023-04-25T07:06:36;7.00;3.80
4673;DHT22;61885;53.560;9.940;2023-04-25T07:09:11;6.90;2.10
4673;DHT22;61885;53.560;9.940;2023-04-25T07:11:41;6.90;1.00
4673;DHT22;61885;53.560;9.940;2023-04-25T07:14:11;6.90;1.00
4673;DHT22;61885;53.560;9.940;2023-04-25T07:16:41;7.00;1.00
4673;DHT22;61885;53.560;9.940;2023-04-25T07:19:11;7.00;1.00
4673;DHT22;61885;53.560;9.940;2023-04-25T07:21:43;7.10;1.00
4673;DHT22;61885;53.560;9.940;2023-04-25T07:24:15;7.10;1.00
4673;DHT22;61885;53.560;9.940;2023-04-25T07:26:44;7.20;1.00
4673;DHT22;61885;53.560;9.940;2023-04-25T07:29:15;7.20;1.00
4673;DHT22;61885;53.560;9.940;2023-04-25T07:31:48;7.20;1.00
4673;DHT22;61885;53.560;9.940;2023-04-25T07:34:17;7.20;1.00
4673;DHT22;61885;53.560;9.940;2023-04-25T07:36:47;7.20;1.00
4673;DHT22;61885;53.560;9.940;2023-04-25T07:39:21;7.20;1.00
4673;DHT22;61885;53.560;9.940;2023-04-25T07:41:51;7.30;1.00
4673;DHT22;61885;53.560;9.940;2023-04-25T07:44:21;7.30;1.00
4673;DHT22;61885;53.560;9.940;2023-04-25T07:46:51;7.40;1.00
4673;DHT22;61885;53.560;9.940;2023-04-25T07:49:21;7.60;1.00
4673;DHT22;61885;53.560;9.940;2023-04-25T07:51:55;7.60;1.00
4673;DHT22;61885;53.560;9.940;2023-04-25T07:54:29;7.60;1.00
4673;DHT22;61885;53.560;9.940;2023-04-25T07:57:06;7.60;1.00
4673;DHT22;61885;53.560;9.940;2023-04-25T07:59:36;7.50;1.00
4673;DHT22;61885;53.560;9.940;2023-04-25T08:02:06;7.50;1.00
4673;DHT22;61885;53.560;9.940;2023-04-25T08:04:35;7.60;1.00
4673;DHT22;61885;53.560;9.940;2023-04-25T08:07:05;7.60;1.00
4673;DHT22;61885;53.560;9.940;2023-04-25T08:09:37;7.70;1.00
4673;DHT22;61885;53.560;9.940;2023-04-25T08:12:08;7.70;1.00
4673;DHT22;61885;53.560;9.940;2023-04-25T08:14:37;7.60;1.00
4673;DHT22;61885;53.560;9.940;2023-04-25T08:17:09;7.70;1.00
4673;DHT22;61885;53.560;9.940;2023-04-25T08:19:38;7.80;1.00
4673;DHT22;61885;53.560;9.940;2023-04-25T08:22:08;7.90;1.00
4673;DHT22;61885;53.560;9.940;2023-04-25T08:24:44;7.80;1.00
4673;DHT22;61885;53.560;9.940;2023-04-25T08:27:15;8.00;1.00
4673;DHT22;61885;53.560;9.940;2023-04-25T08:29:45;7.90;1.00
4673;DHT22;61885;53.560;9.940;2023-04-25T08:32:14;8.00;1.00
4673;DHT22;61885;53.560;9.940;2023-04-25T08:34:48;8.10;1.00
4673;DHT22;61885;53.560;9.940;2023-04-25T08:37:22;8.10;1.00
4673;DHT22;61885;53.560;9.940;2023-04-25T08:39:56;8.10;1.00
4673;DHT22;61885;53.560;9.940;2023-04-25T08:42:31;8.20;1.00
4673;DHT22;61885;53.560;9.940;2023-04-25T08:45:02;8.10;1.00
4673;DHT22;61885;53.560;9.940;2023-04-25T08:47:33;8.00;1.00
4673;DHT22;61885;53.560;9.940;2023-04-25T08:50:05;8.10;1.00
4673;DHT22;61885;53.560;9.940;2023-04-25T08:52:37;7.90;1.00
4673;DHT22;61885;53.560;9.940;2023-04-25T08:55:12;7.90;1.00
4673;DHT22;61885;53.560;9.940;2023-04-25T08:57:44;7.80;1.00
4673;DHT22;61885;53.560;9.940;2023-04-25T09:00:15;7.60;1.00
4673;DHT22;61885;53.560;9.940;2023-04-25T09:02:47;7.60;1.00
4673;DHT22;61885;53.560;9.940;2023-04-25T09:05:22;7.50;1.00
4673;DHT22;61885;53.560;9.940;2023-04-25T09:07:52;7.30;1.00
4673;DHT22;61885;53.560;9.940;2023-04-25T09:10:25;7.40;1.00
4673;DHT22;61885;53.560;9.940;2023-04-25T09:13:05;7.40;1.00
4673;DHT22;61885;53.560;9.940;2023-04-25T09:15:47;7.30;1.00
4673;DHT22;61885;53.560;9.940;2023-04-25T09:18:23;7.30;1.00
4673;DHT22;61885;53.560;9.940;2023-04-25T09:20:57;7.40;1.00
4673;DHT22;61885;53.560;9.940;2023-04-25T09:23:27;7.40;1.00
4673;DHT22;61885;53.560;9.940;2023-04-25T09:26:01;7.60;1.00
4673;DHT22;61885;53.560;9.940;2023-04-25T09:28:30;7.70;1.00
4673;DHT22;61885;53.560;9.940;2023-04-25T09:31:01;7.70;1.00
4673;DHT22;61885;53.560;9.940;2023-04-25T09:33:32;7.70;1.00
4673;DHT22;61885;53.560;9.940;2023-04-25T09:36:05;7.80;1.00
4673;DHT22;61885;53.560;9.940;2023-04-25T09:38:40;8.00;1.00
4673;DHT22;61885;53.560;9.940;2023-04-25T09:41:22;7.90;1.00
4673;DHT22;61885;53.560;9.940;2023-04-25T09:43:56;6.90;21.90
4673;DHT22;61885;53.560;9.940;2023-04-25T09:46:33;6.70;33.60
4673;DHT22;61885;53.560;9.940;2023-04-25T09:49:06;6.90;56.70
4673;DHT22;61885;53.560;9.940;2023-04-25T09:51:36;7.00;30.70
4673;DHT22;61885;53.560;9.940;2023-04-25T09:54:06;7.00;25.90
4673;DHT22;61885;53.560;9.940;2023-04-25T09:56:40;7.10;18.90
4673;DHT22;61885;53.560;9.940;2023-04-25T09:59:11;7.00;5.50
4673;DHT22;61885;53.560;9.940;2023-04-25T10:01:43;7.00;4.50
4673;DHT22;61885;53.560;9.940;2023-04-25T10:04:12;7.10;2.40
4673;DHT22;61885;53.560;9.940;2023-04-25T10:06:44;7.10;4.40
4673;DHT22;61885;53.560;9.940;2023-04-25T10:09:16;7.20;1.10
4673;DHT22;61885;53.560;9.940;2023-04-25T10:11:48;7.40;1.00
4673;DHT22;61885;53.560;9.940;2023-04-25T10:14:19;7.60;1.00
4673;DHT22;61885;53.560;9.940;2023-04-25T10:16:50;7.90;1.00
4673;DHT22;61885;53.560;9.940;2023-04-25T10:19:22;8.00;1.00
4673;DHT22;61885;53.560;9.940;2023-04-25T10:22:00;7.80;1.00
4673;DHT22;61885;53.560;9.940;2023-04-25T10:24:32;7.70;1.00
4673;DHT22;61885;53.560;9.940;2023-04-25T10:27:05;7.70;1.00
4673;DHT22;61885;53.560;9.940;2023-04-25T10:29:37;7.60;1.00
4673;DHT22;61885;53.560;9.940;2023-04-25T10:32:08;7.60;1.00
4673;DHT22;61885;53.560;9.940;2023-04-25T10:34:39;7.80;1.00
4673;DHT22;61885;53.560;9.940;2023-04-25T10:37:10;8.10;1.00
4673;DHT22;61885;53.560;9.940;2023-04-25T10:39:42;8.10;1.00
4673;DHT22;61885;53.560;9.940;2023-04-25T10:42:15;8.30;1.00
4673;DHT22;61885;53.560;9.940;2023-04-25T10:45:02;8.20;1.00
4673;DHT22;61885;53.560;9.940;2023-04-25T10:47:43;8.50;1.00
4673;DHT22;61885;53.560;9.940;2023-04-25T10:50:14;8.70;1.00
4673;DHT22;61885;53.560;9.940;2023-04-25T10:53:07;8.70;1.00
4673;DHT22;61885;53.560;9.940;2023-04-25T10:55:49;8.60;1.00
4673;DHT22;61885;53.560;9.940;2023-04-25T10:58:26;8.70;1.00
4673;DHT22;61885;53.560;9.940;2023-04-25T11:00:55;8.70;1.00
4673;DHT22;61885;53.560;9.940;2023-04-25T11:03:25;8.70;1.00
4673;DHT22;61885;53.560;9.940;2023-04-25T11:05:56;8.80;1.00
4673;DHT22;61885;53.560;9.940;2023-04-25T11:08:43;8.70;1.00
4673;DHT22;61885;53.560;9.940;2023-04-25T11:11:17;8.80;1.00
4673;DHT22;61885;53.560;9.940;2023-04-25T11:13:50;9.00;1.00
4673;DHT22;61885;53.560;9.940;2023-04-25T11:16:20;8.90;1.00
4673;DHT22;61885;53.560;9.940;2023-04-25T11:18:53;8.80;1.00
4673;DHT22;61885;53.560;9.940;2023-04-25T11:21:22;9.00;1.00
4673;DHT22;61885;53.560;9.940;2023-04-25T11:23:53;9.10;1.00
4673;DHT22;61885;53.560;9.940;2023-04-25T11:26:27;9.20;1.00
4673;DHT22;61885;53.560;9.940;2023-04-25T11:29:02;9.50;1.00
4673;DHT22;61885;53.560;9.940;2023-04-25T11:31:37;9.50;1.00
4673;DHT22;61885;53.560;9.940;2023-04-25T11:34:12;9.20;1.00
4673;DHT22;61885;53.560;9.940;2023-04-25T11:36:46;8.30;1.00
4673;DHT22;61885;53.560;9.940;2023-04-25T11:39:19;7.60;1.00
4673;DHT22;61885;53.560;9.940;2023-04-25T11:41:57;7.40;1.00
4673;DHT22;61885;53.560;9.940;2023-04-25T11:44:32;7.40;1.00
4673;DHT22;61885;53.560;9.940;2023-04-25T11:47:07;7.40;1.00
4673;DHT22;61885;53.560;9.940;2023-04-25T11:49:37;7.60;1.00
4673;DHT22;61885;53.560;9.940;2023-04-25T11:52:11;7.70;1.00
4673;DHT22;61885;53.560;9.940;2023-04-25T11:54:41;7.70;1.00
4673;DHT22;61885;53.560;9.940;2023-04-25T11:57:12;8.00;1.00
4673;DHT22;61885;53.560;9.940;2023-04-25T11:59:46;8.20;1.00
4673;DHT22;61885;53.560;9.940;2023-04-25T12:02:27;8.20;1.00
4673;DHT22;61885;53.560;9.940;2023-04-25T12:05:01;9.00;1.00
4673;DHT22;61885;53.560;9.940;2023-04-25T12:07:31;9.70;1.00
4673;DHT22;61885;53.560;9.940;2023-04-25T12:10:10;10.50;1.00
4673;DHT22;61885;53.560;9.940;2023-04-25T12:12:42;10.60;1.00
4673;DHT22;61885;53.560;9.940;2023-04-25T12:15:23;10.30;1.00
4673;DHT22;61885;53.560;9.940;2023-04-25T12:17:54;11.20;1.00
4673;DHT22;61885;53.560;9.940;2023-04-25T12:20:25;11.70;1.00
4673;DHT22;61885;53.560;9.940;2023-04-25T12:22:57;11.20;1.00
4673;DHT22;61885;53.560;9.940;2023-04-25T12:25:35;10.40;1.00
4673;DHT22;61885;53.560;9.940;2023-04-25T12:28:14;9.80;1.00
4673;DHT22;61885;53.560;9.940;2023-04-25T12:31:12;10.20;1.00
4673;DHT22;61885;53.560;9.940;2023-04-25T12:33:57;11.10;1.00
4673;DHT22;61885;53.560;9.940;2023-04-25T12:36:29;11.00;1.00
4673;DHT22;61885;53.560;9.940;2023-04-25T12:39:03;11.00;1.00
4673;DHT22;61885;53.560;9.940;2023-04-25T12:41:33;11.70;1.00
4673;DHT22;61885;53.560;9.940;2023-04-25T12:44:05;12.00;1.00
4673;DHT22;61885;53.560;9.940;2023-04-25T12:46:39;11.70;1.00
4673;DHT22;61885;53.560;9.940;2023-04-25T12:49:10;11.70;1.00
4673;DHT22;61885;53.560;9.940;2023-04-25T12:51:41;10.60;1.00
4673;DHT22;61885;53.560;9.940;2023-04-25T12:54:13;9.90;1.00
4673;DHT22;61885;53.560;9.940;2023-04-25T12:56:43;9.50;1.00
4673;DHT22;61885;53.560;9.940;2023-04-25T12:59:13;9.10;1.00
4673;DHT22;61885;53.560;9.940;2023-04-25T13:01:50;9.60;1.00
4673;DHT22;61885;53.560;9.940;2023-04-25T13:04:22;10.20;1.00
4673;DHT22;61885;53.560;9.940;2023-04-25T13:06:52;10.50;1.00
4673;DHT22;61885;53.560;9.940;2023-04-25T13:09:23;10.70;1.00
4673;DHT22;61885;53.560;9.940;2023-04-25T13:11:53;10.90;1.00
4673;DHT22;61885;53.560;9.940;2023-04-25T13:14:24;10.30;1.00
4673;DHT22;61885;53.560;9.940;2023-04-25T13:17:03;9.80;1.00
4673;DHT22;61885;53.560;9.940;2023-04-25T13:19:34;8.30;1.00
4673;DHT22;61885;53.560;9.940;2023-04-25T13:22:05;7.00;1.00
4673;DHT22;61885;53.560;9.940;2023-04-25T13:24:39;6.50;21.10
4673;DHT22;61885;53.560;9.940;2023-04-25T13:27:10;6.40;18.60
4673;DHT22;61885;53.560;9.940;2023-04-25T13:29:40;6.60;24.10
4673;DHT22;61885;53.560;9.940;2023-04-25T13:32:14;6.70;16.30
4673;DHT22;61885;53.560;9.940;2023-04-25T13:34:43;7.00;11.40
4673;DHT22;61885;53.560;9.940;2023-04-25T13:37:17;7.90;2.10
4673;DHT22;61885;53.560;9.940;2023-04-25T13:39:47;9.00;1.00
4673;DHT22;61885;53.560;9.940;2023-04-25T13:42:28;9.80;1.00
4673;DHT22;61885;53.560;9.940;2023-04-25T13:44:59;10.00;1.00
4673;DHT22;61885;53.560;9.940;2023-04-25T13:47:33;10.50;1.00
4673;DHT22;61885;53.560;9.940;2023-04-25T13:50:03;10.10;1.00
4673;DHT22;61885;53.560;9.940;2023-04-25T13:52:35;8.40;1.00
4673;DHT22;61885;53.560;9.940;2023-04-25T13:55:05;6.90;1.00
4673;DHT22;61885;53.560;9.940;2023-04-25T13:57:38;6.10;32.40
4673;DHT22;61885;53.560;9.940;2023-04-25T14:00:10;5.90;53.60
4673;DHT22;61885;53.560;9.940;2023-04-25T14:02:44;5.80;70.10
4673;DHT22;61885;53.560;9.940;2023-04-25T14:05:13;5.90;75.00
4673;DHT22;61885;53.560;9.940;2023-04-25T14:07:44;5.90;46.00
4673;DHT22;61885;53.560;9.940;2023-04-25T14:10:14;6.00;38.90
4673;DHT22;61885;53.560;9.940;2023-04-25T14:12:44;6.50;30.20
4673;DHT22;61885;53.560;9.940;2023-04-25T14:15:17;7.10;21.00
4673;DHT22;61885;53.560;9.940;2023-04-25T14:17:49;7.70;11.10
4673;DHT22;61885;53.560;9.940;2023-04-25T14:20:20;8.10;5.40
4673;DHT22;61885;53.560;9.940;2023-04-25T14:22:51;8.70;1.00
4673;DHT22;61885;53.560;9.940;2023-04-25T14:25:22;9.10;1.00
4673;DHT22;61885;53.560;9.940;2023-04-25T14:27:52;9.60;1.00
4673;DHT22;61885;53.560;9.940;2023-04-25T14:30:22;10.00;1.00
4673;DHT22;61885;53.560;9.940;2023-04-25T14:32:54;9.30;1.00
4673;DHT22;61885;53.560;9.940;2023-04-25T14:35:25;8.90;1.00
4673;DHT22;61885;53.560;9.940;2023-04-25T14:38:09;9.20;1.00
4673;DHT22;61885;53.560;9.940;2023-04-25T14:40:41;9.90;1.00
4673;DHT22;61885;53.560;9.940;2023-04-25T14:43:11;10.40;1.00
4673;DHT22;61885;53.560;9.940;2023-04-25T14:45:46;10.60;1.00
4673;DHT22;61885;53.560;9.940;2023-04-25T14:48:18;11.20;1.00
4673;DHT22;61885;53.560;9.940;2023-04-25T14:50:52;11.30;1.00
4673;DHT22;61885;53.560;9.940;2023-04-25T14:53:23;11.30;1.00
4673;DHT22;61885;53.560;9.940;2023-04-25T14:58:23;12.40;1.00
4673;DHT22;61885;53.560;9.940;2023-04-25T15:00:53;13.30;1.00
4673;DHT22;61885;53.560;9.940;2023-04-25T15:03:27;12.30;1.00
4673;DHT22;61885;53.560;9.940;2023-04-25T15:05:59;11.00;1.00
4673;DHT22;61885;53.560;9.940;2023-04-25T15:08:28;10.10;1.00
4673;DHT22;61885;53.560;9.940;2023-04-25T15:11:01;9.60;1.00
4673;DHT22;61885;53.560;9.940;2023-04-25T15:13:38;9.90;1.00
4673;DHT22;61885;53.560;9.940;2023-04-25T15:16:07;9.70;1.00
4673;DHT22;61885;53.560;9.940;2023-04-25T15:18:41;9.60;1.00
4673;DHT22;61885;53.560;9.940;2023-04-25T15:21:10;10.00;1.00
4673;DHT22;61885;53.560;9.940;2023-04-25T15:23:44;9.60;1.00
4673;DHT22;61885;53.560;9.940;2023-04-25T15:26:14;10.20;1.00
4673;DHT22;61885;53.560;9.940;2023-04-25T15:28:43;11.40;1.00
4673;DHT22;61885;53.560;9.940;2023-04-25T15:31:20;12.60;1.00
4673;DHT22;61885;53.560;9.940;2023-04-25T15:33:52;13.00;1.00
4673;DHT22;61885;53.560;9.940;2023-04-25T15:36:22;12.70;1.00
4673;DHT22;61885;53.560;9.940;2023-04-25T15:38:52;12.10;1.00
4673;DHT22;61885;53.560;9.940;2023-04-25T15:41:22;11.60;1.00
4673;DHT22;61885;53.560;9.940;2023-04-25T15:43:52;12.10;1.00
4673;DHT22;61885;53.560;9.940;2023-04-25T15:46:22;13.00;1.00
4673;DHT22;61885;53.560;9.940;2023-04-25T15:48:56;13.60;1.00
4673;DHT22;61885;53.560;9.940;2023-04-25T15:51:26;14.20;1.00
4673;DHT22;61885;53.560;9.940;2023-04-25T15:53:56;13.00;1.00
4673;DHT22;61885;53.560;9.940;2023-04-25T15:56:31;11.80;1.00
4673;DHT22;61885;53.560;9.940;2023-04-25T15:59:02;10.60;1.00
4673;DHT22;61885;53.560;9.940;2023-04-25T16:01:32;11.00;1.00
4673;DHT22;61885;53.560;9.940;2023-04-25T16:04:04;11.10;1.00
4673;DHT22;61885;53.560;9.940;2023-04-25T16:06:34;10.90;1.00
4673;DHT22;61885;53.560;9.940;2023-04-25T16:09:04;10.20;1.00
4673;DHT22;61885;53.560;9.940;2023-04-25T16:11:36;9.80;1.00
4673;DHT22;61885;53.560;9.940;2023-04-25T16:14:07;9.40;1.00
4673;DHT22;61885;53.560;9.940;2023-04-25T16:16:37;9.30;1.00
4673;DHT22;61885;53.560;9.940;2023-04-25T16:19:10;9.60;1.00
4673;DHT22;61885;53.560;9.940;2023-04-25T16:21:42;10.80;1.00
4673;DHT22;61885;53.560;9.940;2023-04-25T16:24:14;10.80;1.00
4673;DHT22;61885;53.560;9.940;2023-04-25T16:26:44;10.20;1.00
4673;DHT22;61885;53.560;9.940;2023-04-25T16:29:13;9.40;1.00
4673;DHT22;61885;53.560;9.940;2023-04-25T16:31:43;9.70;1.00
4673;DHT22;61885;53.560;9.940;2023-04-25T16:34:20;10.50;1.00
4673;DHT22;61885;53.560;9.940;2023-04-25T16:36:53;11.00;1.00
4673;DHT22;61885;53.560;9.940;2023-04-25T16:39:23;11.70;1.00
4673;DHT22;61885;53.560;9.940;2023-04-25T16:41:52;12.00;1.00